createdAt,value
2023-06-20T00:00:28.529Z,58.89
2023-06-20T00:03:35.076Z,60.06
2023-06-20T00:06:23.603Z,60.42
2023-06-20T00:09:10.542Z,60.93
2023-06-20T00:11:57.259Z,60.79
2023-06-20T00:14:43.580Z,65.97
2023-06-20T00:17:30.170Z,67.01
2023-06-20T00:20:16.793Z,57.47
2023-06-20T00:23:03.543Z,55.67
2023-06-20T00:25:50.065Z,57.05
2023-06-20T00:28:36.725Z,57.38
2023-06-20T00:31:23.395Z,58.80
2023-06-20T00:34:10.331Z,59.36
2023-06-20T00:36:57.185Z,59.85
2023-06-20T00:39:43.925Z,60.82
2023-06-20T00:42:30.316Z,61.93
2023-06-20T00:45:29.287Z,67.97
2023-06-20T00:48:17.490Z,64.88
2023-06-20T00:51:04.341Z,57.17
2023-06-20T00:53:51.640Z,56.03
2023-06-20T00:56:38.553Z,57.03
2023-06-20T00:59:25.235Z,58.30
2023-06-20T01:02:15.259Z,58.77
2023-06-20T01:05:03.700Z,58.81
2023-06-20T01:07:59.385Z,60.29
2023-06-20T01:11:04.408Z,67.33
2023-06-20T01:14:04.578Z,63.00
2023-06-20T01:17:17.491Z,56.77
2023-06-20T01:20:17.580Z,56.94
2023-06-20T01:23:09.648Z,57.37
2023-06-20T01:26:41.998Z,58.54
2023-06-20T01:29:41.029Z,59.51
2023-06-20T01:32:30.019Z,60.56
2023-06-20T01:35:22.618Z,60.85
2023-06-20T01:38:12.125Z,68.76
2023-06-20T01:41:01.051Z,65.21
2023-06-20T01:43:51.126Z,58.33
2023-06-20T01:46:37.767Z,57.54
2023-06-20T01:49:26.994Z,58.81
2023-06-20T01:52:15.852Z,60.06
2023-06-20T01:55:07.203Z,60.89
2023-06-20T01:57:56.351Z,66.52
2023-06-20T02:00:44.408Z,67.43
2023-06-20T02:03:33.091Z,61.64
2023-06-20T02:06:21.363Z,56.47
2023-06-20T02:09:08.630Z,55.59
2023-06-20T02:11:56.352Z,56.37
2023-06-20T02:14:45.104Z,58.17
2023-06-20T02:17:34.226Z,59.18
2023-06-20T02:20:21.451Z,60.86
2023-06-20T02:23:11.239Z,68.89
2023-06-20T02:26:11.157Z,64.77
2023-06-20T02:29:05.226Z,60.65
2023-06-20T02:31:52.841Z,55.61
2023-06-20T02:34:44.476Z,56.17
2023-06-20T02:37:34.622Z,57.43
2023-06-20T02:40:24.879Z,58.74
2023-06-20T02:43:12.285Z,60.53
2023-06-20T02:46:24.316Z,65.96
2023-06-20T02:49:40.867Z,67.03
2023-06-20T02:52:45.867Z,60.11
2023-06-20T02:55:58.532Z,55.32
2023-06-20T02:58:52.417Z,56.89
2023-06-20T03:01:41.992Z,58.73
2023-06-20T03:04:33.541Z,59.77
2023-06-20T03:07:21.241Z,60.52
2023-06-20T03:10:09.806Z,67.67
2023-06-20T03:12:57.406Z,65.49
2023-06-20T03:15:44.540Z,60.49
2023-06-20T03:18:31.443Z,55.56
2023-06-20T03:24:09.422Z,57.29
2023-06-20T03:26:58.017Z,59.45
2023-06-20T03:29:44.654Z,59.30
2023-06-20T03:32:31.541Z,66.97
2023-06-20T03:35:18.431Z,65.09
2023-06-20T03:38:05.344Z,59.53
2023-06-20T03:40:53.126Z,55.20
2023-06-20T03:43:39.475Z,55.74
2023-06-20T03:46:26.250Z,56.65
2023-06-20T03:49:12.867Z,57.97
2023-06-20T03:52:00.328Z,59.71
2023-06-20T03:54:46.750Z,66.48
2023-06-20T03:57:34.159Z,63.58
2023-06-20T04:00:20.923Z,56.74
2023-06-20T04:03:07.658Z,56.39
2023-06-20T04:05:54.374Z,57.26
2023-06-20T04:08:41.302Z,58.39
2023-06-20T04:11:27.825Z,59.48
2023-06-20T04:14:14.585Z,60.61
2023-06-20T04:17:01.202Z,66.52
2023-06-20T04:19:48.448Z,62.09
2023-06-20T04:22:35.144Z,55.74
2023-06-20T04:25:21.439Z,55.76
2023-06-20T04:28:09.338Z,56.86
2023-06-20T04:31:07.553Z,57.95
2023-06-20T04:33:55.830Z,58.38
2023-06-20T04:36:42.220Z,58.92
2023-06-20T04:39:31.242Z,59.05
2023-06-20T04:42:18.309Z,59.04
2023-06-20T04:45:06.929Z,59.14
2023-06-20T04:47:53.424Z,59.48
2023-06-20T04:50:39.761Z,59.45
2023-06-20T04:53:27.266Z,59.58
2023-06-20T04:56:17.101Z,59.63
2023-06-20T04:59:03.855Z,59.46
2023-06-20T05:01:52.597Z,59.66
2023-06-20T05:04:39.517Z,59.81
2023-06-20T05:07:26.140Z,59.61
2023-06-20T05:10:12.740Z,59.06
2023-06-20T05:12:59.241Z,58.73
2023-06-20T05:15:45.633Z,58.86
2023-06-20T05:18:32.877Z,58.53
2023-06-20T05:21:19.511Z,57.87
2023-06-20T05:24:06.005Z,57.58
2023-06-20T05:26:52.816Z,58.34
2023-06-20T05:29:39.374Z,58.85
2023-06-20T05:32:26.052Z,58.13
2023-06-20T05:35:13.117Z,57.25
2023-06-20T05:38:01.189Z,57.56
2023-06-20T05:40:47.458Z,57.05
2023-06-20T05:43:34.537Z,56.92
2023-06-20T05:46:21.294Z,56.55
2023-06-20T05:49:11.342Z,55.62
2023-06-20T05:52:01.008Z,55.61
2023-06-20T05:54:47.415Z,55.45
2023-06-20T05:57:34.081Z,55.93
2023-06-20T06:00:20.727Z,55.40
2023-06-20T06:03:07.619Z,54.87
2023-06-20T06:05:54.481Z,55.29
2023-06-20T06:08:42.057Z,54.08
2023-06-20T06:11:28.537Z,54.11
2023-06-20T06:14:14.865Z,52.86
2023-06-20T06:17:01.338Z,52.96
2023-06-20T06:19:47.821Z,52.35
2023-06-20T06:22:34.434Z,51.84
2023-06-20T06:25:20.909Z,51.08
2023-06-20T06:28:07.731Z,49.80
2023-06-20T06:31:01.761Z,50.87
2023-06-20T06:33:48.588Z,50.05
2023-06-20T06:36:35.620Z,50.20
2023-06-20T06:39:25.605Z,49.10
2023-06-20T06:42:12.102Z,47.66
2023-06-20T06:44:59.307Z,47.00
2023-06-20T06:47:45.939Z,47.34
2023-06-20T06:50:32.639Z,46.90
2023-06-20T06:53:19.195Z,46.17
2023-06-20T06:56:05.703Z,44.01
2023-06-20T06:58:54.595Z,43.03
2023-06-20T07:01:41.059Z,43.34
2023-06-20T07:04:27.808Z,44.23
2023-06-20T07:07:14.564Z,42.82
2023-06-20T07:10:01.459Z,42.80
2023-06-20T07:12:48.095Z,41.34
2023-06-20T07:15:34.662Z,42.03
2023-06-20T07:18:21.132Z,40.57
2023-06-20T07:21:07.431Z,41.41
2023-06-20T07:23:54.118Z,40.48
2023-06-20T07:26:40.913Z,39.99
2023-06-20T07:29:27.790Z,40.61
2023-06-20T07:32:15.675Z,41.14
2023-06-20T07:35:02.198Z,40.65
2023-06-20T07:37:48.465Z,40.44
2023-06-20T07:40:34.958Z,38.70
2023-06-20T07:43:28.165Z,38.76
2023-06-20T07:46:15.154Z,39.37
2023-06-20T07:49:01.697Z,38.76
2023-06-20T07:51:48.310Z,37.89
2023-06-20T07:54:34.772Z,37.65
2023-06-20T07:57:21.309Z,38.35
2023-06-20T08:00:12.530Z,37.40
2023-06-20T08:02:59.318Z,37.71
2023-06-20T08:05:46.040Z,37.53
2023-06-20T08:08:32.790Z,36.87
2023-06-20T08:11:23.534Z,35.42
2023-06-20T08:14:10.099Z,35.70
2023-06-20T08:16:56.799Z,35.46
2023-06-20T08:19:43.200Z,34.30
2023-06-20T08:22:30.640Z,33.90
2023-06-20T08:25:18.810Z,34.74
2023-06-20T08:28:14.404Z,35.40
2023-06-20T08:31:03.721Z,35.29
2023-06-20T08:33:50.515Z,34.50
2023-06-20T08:36:37.825Z,34.24
2023-06-20T08:39:24.491Z,34.63
2023-06-20T08:42:11.709Z,33.25
2023-06-20T08:44:59.885Z,33.58
2023-06-20T08:47:46.290Z,33.70
2023-06-20T08:50:33.844Z,33.29
2023-06-20T08:53:23.855Z,31.77
2023-06-20T08:56:11.142Z,32.29
2023-06-20T08:58:57.709Z,31.56
2023-06-20T09:01:44.566Z,31.29
2023-06-20T09:04:31.142Z,32.53
2023-06-20T09:07:19.814Z,32.50
2023-06-20T09:10:07.600Z,32.34
2023-06-20T09:12:57.786Z,31.19
2023-06-20T09:15:44.671Z,30.58
2023-06-20T09:18:32.256Z,30.06
2023-06-20T09:21:18.817Z,29.72
2023-06-20T09:24:07.011Z,31.54
2023-06-20T09:26:53.594Z,31.81
2023-06-20T09:29:53.482Z,31.09
2023-06-20T09:32:42.148Z,30.47
2023-06-20T09:35:31.458Z,31.43
2023-06-20T09:38:17.699Z,30.87
2023-06-20T09:41:08.022Z,30.60
2023-06-20T09:43:54.538Z,30.64
2023-06-20T09:46:41.298Z,30.18
2023-06-20T09:49:30.589Z,30.07
2023-06-20T09:52:18.621Z,29.33
2023-06-20T09:55:10.981Z,30.05
2023-06-20T09:57:59.671Z,30.15
2023-06-20T10:00:46.761Z,28.67
2023-06-20T10:03:35.729Z,28.29
2023-06-20T10:06:23.262Z,28.20
2023-06-20T10:09:11.100Z,28.38
2023-06-20T10:11:57.963Z,27.88
2023-06-20T10:14:44.722Z,28.61
2023-06-20T10:17:33.050Z,29.05
2023-06-20T10:20:33.194Z,28.94
2023-06-20T10:23:21.541Z,28.93
2023-06-20T10:26:09.686Z,29.45
2023-06-20T10:28:57.850Z,28.78
2023-06-20T10:32:07.504Z,28.74
2023-06-20T10:34:54.121Z,28.20
2023-06-20T10:37:40.814Z,28.27
2023-06-20T10:40:31.045Z,28.60
2023-06-20T10:43:19.310Z,28.17
2023-06-20T10:46:05.854Z,27.32
2023-06-20T10:48:52.582Z,28.01
2023-06-20T10:51:49.286Z,26.96
2023-06-20T10:54:35.760Z,27.53
2023-06-20T10:57:23.466Z,27.84
2023-06-20T11:00:14.473Z,27.20
2023-06-20T11:03:01.481Z,27.37
2023-06-20T11:05:53.009Z,27.16
2023-06-20T11:08:44.456Z,26.39
2023-06-20T11:11:40.958Z,27.42
2023-06-20T11:14:27.708Z,26.72
2023-06-20T11:17:14.171Z,26.35
2023-06-20T11:20:01.698Z,26.19
2023-06-20T11:22:49.488Z,26.57
2023-06-20T11:25:38.201Z,26.72
2023-06-20T11:28:24.564Z,25.71
2023-06-20T11:31:12.182Z,25.62
2023-06-20T11:34:11.084Z,25.42
2023-06-20T11:36:58.085Z,25.46
2023-06-20T11:39:48.063Z,25.42
2023-06-20T11:42:35.533Z,25.75
2023-06-20T11:45:27.258Z,25.96
2023-06-20T11:48:16.209Z,25.64
2023-06-20T11:51:04.401Z,26.05
2023-06-20T11:54:01.903Z,25.89
2023-06-20T11:56:52.138Z,25.93
2023-06-20T11:59:38.465Z,26.94
2023-06-20T12:02:28.376Z,26.63
2023-06-20T12:05:16.551Z,26.78
2023-06-20T12:08:03.081Z,25.34
2023-06-20T12:11:01.285Z,25.84
2023-06-20T12:13:49.256Z,25.75
2023-06-20T12:16:35.910Z,25.77
2023-06-20T12:19:22.923Z,25.86
2023-06-20T12:22:09.556Z,25.44
2023-06-20T12:24:55.953Z,24.46
2023-06-20T12:27:43.101Z,24.34
2023-06-20T12:30:31.980Z,24.39
2023-06-20T12:33:19.594Z,23.42
2023-06-20T12:36:06.547Z,23.94
2023-06-20T12:38:53.185Z,23.11
2023-06-20T12:41:39.830Z,23.30
2023-06-20T12:44:26.218Z,23.45
2023-06-20T12:47:13.424Z,21.91
2023-06-20T12:50:03.849Z,21.29
2023-06-20T12:52:50.507Z,21.70
2023-06-20T12:55:37.313Z,21.72
2023-06-20T12:58:24.198Z,20.09
2023-06-20T13:01:10.539Z,20.32
2023-06-20T13:03:57.793Z,20.27
2023-06-20T13:06:44.811Z,20.45
2023-06-20T13:09:32.232Z,19.90
2023-06-20T13:12:18.975Z,19.92
2023-06-20T13:15:07.879Z,19.83
2023-06-20T13:17:57.513Z,18.66
2023-06-20T13:20:44.467Z,17.99
2023-06-20T13:23:31.164Z,17.91
2023-06-20T13:26:19.257Z,17.59
2023-06-20T13:29:05.983Z,17.76
2023-06-20T13:31:52.252Z,18.04
2023-06-20T13:34:38.770Z,18.47
2023-06-20T13:37:26.145Z,18.27
2023-06-20T13:40:13.696Z,18.21
2023-06-20T13:43:03.820Z,17.28
2023-06-20T13:45:51.033Z,16.75
2023-06-20T13:48:37.657Z,16.27
2023-06-20T13:51:24.002Z,16.69
2023-06-20T13:54:12.464Z,16.64
2023-06-20T13:56:58.904Z,15.69
2023-06-20T13:59:45.723Z,15.71
2023-06-20T14:02:32.387Z,15.26
2023-06-20T14:05:21.206Z,15.46
2023-06-20T14:08:08.132Z,15.98
2023-06-20T14:10:54.700Z,16.23
2023-06-20T14:13:41.439Z,15.89
2023-06-20T14:16:28.507Z,16.38
2023-06-20T14:19:14.844Z,16.46
2023-06-20T14:22:01.746Z,16.63
2023-06-20T14:24:48.616Z,16.58
2023-06-20T14:27:35.045Z,16.61
2023-06-20T14:30:21.810Z,16.57
2023-06-20T14:33:08.286Z,15.98
2023-06-20T14:35:54.971Z,15.59
2023-06-20T14:38:42.405Z,14.79
2023-06-20T14:41:29.200Z,15.41
2023-06-20T14:44:16.084Z,15.15
2023-06-20T14:47:02.750Z,14.65
2023-06-20T14:49:49.531Z,14.52
2023-06-20T14:52:36.130Z,14.57
2023-06-20T14:55:22.404Z,14.86
2023-06-20T14:58:09.837Z,15.08
2023-06-20T15:00:58.024Z,15.46
2023-06-20T15:03:45.717Z,15.88
2023-06-20T15:06:32.598Z,16.77
2023-06-20T15:09:19.187Z,17.31
2023-06-20T15:12:06.320Z,17.40
2023-06-20T15:14:52.808Z,17.17
2023-06-20T15:17:39.573Z,16.03
2023-06-20T15:20:26.913Z,15.48
2023-06-20T15:23:13.901Z,15.51
2023-06-20T15:26:00.537Z,15.46
2023-06-20T15:28:46.771Z,15.67
2023-06-20T15:31:33.338Z,16.02
2023-06-20T15:34:19.949Z,16.79
2023-06-20T15:37:06.773Z,17.06
2023-06-20T15:39:53.930Z,17.41
2023-06-20T15:42:40.714Z,17.73
2023-06-20T15:45:27.052Z,18.10
2023-06-20T15:48:14.523Z,18.48
2023-06-20T15:51:01.224Z,18.60
2023-06-20T15:53:47.927Z,18.85
2023-06-20T15:56:34.237Z,18.77
2023-06-20T15:59:21.016Z,18.53
2023-06-20T16:02:13.610Z,18.12
2023-06-20T16:05:00.216Z,17.11
2023-06-20T16:07:46.578Z,16.62
2023-06-20T16:10:33.368Z,15.61
2023-06-20T16:13:19.479Z,15.48
2023-06-20T16:16:06.664Z,15.01
2023-06-20T16:18:53.716Z,14.74
2023-06-20T16:21:41.152Z,14.62
2023-06-20T16:24:27.823Z,14.32
2023-06-20T16:27:14.685Z,14.11
2023-06-20T16:30:02.242Z,14.47
2023-06-20T16:32:48.871Z,14.76
2023-06-20T16:35:35.665Z,14.91
2023-06-20T16:38:25.804Z,14.89
2023-06-20T16:41:12.625Z,15.34
2023-06-20T16:43:59.117Z,15.19
2023-06-20T16:46:45.669Z,15.02
2023-06-20T16:49:35.349Z,14.95
2023-06-20T16:52:22.246Z,15.00
2023-06-20T16:55:08.923Z,14.74
2023-06-20T16:57:55.415Z,14.82
2023-06-20T17:00:41.618Z,14.50
2023-06-20T17:03:28.096Z,14.33
2023-06-20T17:06:14.805Z,14.58
2023-06-20T17:09:01.481Z,14.38
2023-06-20T17:11:51.539Z,14.85
2023-06-20T17:14:38.236Z,15.34
2023-06-20T17:17:25.616Z,16.07
2023-06-20T17:20:12.217Z,16.93
2023-06-20T17:22:59.068Z,18.54
2023-06-20T17:25:46.160Z,18.61
2023-06-20T17:28:32.395Z,18.71
2023-06-20T17:31:19.164Z,19.15
2023-06-20T17:34:05.843Z,19.54
2023-06-20T17:36:52.491Z,19.74
2023-06-20T17:39:39.274Z,19.10
2023-06-20T17:42:25.869Z,19.38
2023-06-20T17:45:12.849Z,20.05
2023-06-20T17:48:00.618Z,21.30
2023-06-20T17:50:47.412Z,22.38
2023-06-20T17:53:33.934Z,22.85
2023-06-20T17:56:20.715Z,23.43
2023-06-20T17:59:07.198Z,24.20
2023-06-20T18:01:55.873Z,24.99
2023-06-20T18:04:42.909Z,25.68
2023-06-20T18:07:29.498Z,26.06
2023-06-20T18:10:18.353Z,26.67
2023-06-20T18:13:04.908Z,28.19
2023-06-20T18:15:51.860Z,29.34
2023-06-20T18:18:40.249Z,29.17
2023-06-20T18:21:28.279Z,29.53
2023-06-20T18:24:15.066Z,30.22
2023-06-20T18:27:01.577Z,30.53
2023-06-20T18:29:48.234Z,31.30
2023-06-20T18:32:34.930Z,31.75
2023-06-20T18:35:21.465Z,31.65
2023-06-20T18:38:08.749Z,31.97
2023-06-20T18:40:55.562Z,32.93
2023-06-20T18:43:42.861Z,32.87
2023-06-20T18:46:31.420Z,33.46
2023-06-20T18:49:17.950Z,33.58
2023-06-20T18:52:05.179Z,33.78
2023-06-20T18:55:07.910Z,34.73
2023-06-20T18:57:54.479Z,34.59
2023-06-20T19:00:40.817Z,34.73
2023-06-20T19:03:27.431Z,34.99
2023-06-20T19:06:13.955Z,35.43
2023-06-20T19:09:00.624Z,35.61
2023-06-20T19:11:47.250Z,35.76
2023-06-20T19:14:35.015Z,36.01
2023-06-20T19:17:24.954Z,36.17
2023-06-20T19:20:13.049Z,36.38
2023-06-20T19:22:59.733Z,36.96
2023-06-20T19:25:46.354Z,37.10
2023-06-20T19:28:32.943Z,37.34
2023-06-20T19:31:20.119Z,37.66
2023-06-20T19:34:10.698Z,38.27
2023-06-20T19:36:57.382Z,38.47
2023-06-20T19:39:43.762Z,38.84
2023-06-20T19:42:30.874Z,38.67
2023-06-20T19:45:17.593Z,39.69
2023-06-20T19:48:04.249Z,40.26
2023-06-20T19:50:50.929Z,41.27
2023-06-20T19:53:37.778Z,41.48
2023-06-20T19:56:24.190Z,41.29
2023-06-20T19:59:10.740Z,41.79
2023-06-20T20:01:57.271Z,42.07
2023-06-20T20:04:43.972Z,42.61
2023-06-20T20:07:30.861Z,43.39
2023-06-20T20:10:17.282Z,42.48
2023-06-20T20:13:03.741Z,43.28
2023-06-20T20:15:50.795Z,44.17
2023-06-20T20:18:37.541Z,46.45
2023-06-20T20:21:24.411Z,45.43
2023-06-20T20:24:11.173Z,44.46
2023-06-20T20:26:57.724Z,44.34
2023-06-20T20:29:44.746Z,45.13
2023-06-20T20:32:31.409Z,45.70
2023-06-20T20:35:18.524Z,45.68
2023-06-20T20:38:07.197Z,45.54
2023-06-20T20:40:53.786Z,48.05
2023-06-20T20:43:40.978Z,47.35
2023-06-20T20:46:27.485Z,46.50
2023-06-20T20:49:14.377Z,46.65
2023-06-20T20:52:00.913Z,47.53
2023-06-20T20:54:48.018Z,47.56
2023-06-20T20:57:34.837Z,47.78
2023-06-20T21:00:21.660Z,48.21
2023-06-20T21:03:09.338Z,48.59
2023-06-20T21:05:56.111Z,48.68
2023-06-20T21:08:43.237Z,48.71
2023-06-20T21:11:29.967Z,48.26
2023-06-20T21:14:16.596Z,47.99
2023-06-20T21:17:03.605Z,48.60
2023-06-20T21:19:50.476Z,48.32
2023-06-20T21:22:37.786Z,48.54
2023-06-20T21:25:24.600Z,48.62
2023-06-20T21:28:11.649Z,48.55
2023-06-20T21:30:59.919Z,48.99
2023-06-20T21:33:46.487Z,49.43
2023-06-20T21:36:33.269Z,49.99
2023-06-20T21:39:19.680Z,50.01
2023-06-20T21:42:07.219Z,49.89
2023-06-20T21:44:53.402Z,49.76
2023-06-20T21:47:40.032Z,49.72
2023-06-20T21:50:27.031Z,49.69
2023-06-20T21:53:13.786Z,49.64
2023-06-20T21:56:00.535Z,49.48
2023-06-20T21:58:47.342Z,49.23
2023-06-20T22:01:34.010Z,48.88
2023-06-20T22:04:20.630Z,49.06
2023-06-20T22:07:08.912Z,48.75
2023-06-20T22:10:03.147Z,48.41
2023-06-20T22:12:51.064Z,48.33
2023-06-20T22:15:37.877Z,47.96
2023-06-20T22:18:24.688Z,48.24
2023-06-20T22:21:11.077Z,48.05
2023-06-20T22:23:57.937Z,48.14
2023-06-20T22:26:49.792Z,47.96
2023-06-20T22:29:36.616Z,47.83
2023-06-20T22:32:23.882Z,47.96
2023-06-20T22:35:10.813Z,47.92
2023-06-20T22:37:57.418Z,47.92
2023-06-20T22:40:45.079Z,47.74
2023-06-20T22:43:32.484Z,47.69
2023-06-20T22:46:24.377Z,47.63
2023-06-20T22:49:11.744Z,47.54
2023-06-20T22:51:58.180Z,47.75
2023-06-20T22:54:45.147Z,48.28
2023-06-20T22:57:32.031Z,48.74
2023-06-20T23:00:19.570Z,48.78
2023-06-20T23:03:06.084Z,48.86
2023-06-20T23:05:52.595Z,49.21
2023-06-20T23:08:39.264Z,49.52
2023-06-20T23:11:28.185Z,49.76
2023-06-20T23:14:14.481Z,49.56
2023-06-20T23:17:01.304Z,49.94
2023-06-20T23:19:49.546Z,49.87
2023-06-20T23:22:37.644Z,50.18
2023-06-20T23:25:24.276Z,50.44
2023-06-20T23:28:11.349Z,50.56
2023-06-20T23:30:58.130Z,50.71
2023-06-20T23:33:45.181Z,50.78
2023-06-20T23:36:32.234Z,50.82
2023-06-20T23:39:18.875Z,50.74
2023-06-20T23:42:05.935Z,51.32
2023-06-20T23:44:52.329Z,51.61
2023-06-20T23:47:39.123Z,51.40
2023-06-20T23:50:25.944Z,51.31
2023-06-20T23:53:13.867Z,51.62
2023-06-20T23:56:00.472Z,51.89
2023-06-20T23:58:46.651Z,52.11
